createdAt,value
2022-12-11T14:40:26.488Z,94970.91
2022-12-11T14:43:00.296Z,94971.72
2022-12-11T14:45:34.991Z,94971.72
2022-12-11T14:48:06.436Z,94973.69
2022-12-11T14:50:39.359Z,94977.63
2022-12-11T14:53:14.700Z,94970.81
2022-12-11T14:55:45.196Z,94972.69
2022-12-11T14:58:17.442Z,94975.44
2022-12-11T15:00:46.408Z,94983.00
2022-12-11T15:03:24.701Z,94984.19
2022-12-11T15:05:54.779Z,94980.47
2022-12-11T15:08:27.870Z,94990.22
2022-12-11T15:11:03.969Z,94975.53
2022-12-11T15:13:32.745Z,94985.09
2022-12-11T15:16:01.684Z,94990.91
2022-12-11T15:18:33.036Z,94988.31
2022-12-11T15:21:03.632Z,94996.69
2022-12-11T15:23:32.351Z,94993.69
2022-12-11T15:26:03.627Z,94991.38
2022-12-11T15:28:35.229Z,94988.00
2022-12-11T15:31:07.318Z,94989.78
2022-12-11T15:33:47.117Z,94988.88
2022-12-11T15:36:25.951Z,94992.53
2022-12-11T15:38:56.233Z,94989.38
2022-12-11T15:41:26.830Z,94997.88
2022-12-11T15:43:59.219Z,94998.09
2022-12-11T15:46:28.227Z,94993.00
2022-12-11T15:48:58.600Z,94998.28
2022-12-11T15:51:27.788Z,94996.47
2022-12-11T15:53:56.668Z,94997.28
2022-12-11T15:56:27.133Z,94996.88
2022-12-11T15:58:56.013Z,94995.22
2022-12-11T16:01:25.221Z,94996.22
2022-12-11T16:03:57.258Z,95000.25
2022-12-11T16:06:28.687Z,94997.75
2022-12-11T16:08:57.094Z,94999.13
2022-12-11T16:11:27.492Z,95000.19
2022-12-11T16:13:56.298Z,94998.16
2022-12-11T16:16:30.946Z,94996.06
2022-12-11T16:18:59.410Z,95004.34
2022-12-11T16:21:27.981Z,95004.28
2022-12-11T16:23:57.177Z,95005.09
2022-12-11T16:26:27.431Z,94999.00
2022-12-11T16:28:56.726Z,94999.63
2022-12-11T16:31:25.387Z,95004.41
2022-12-11T16:33:54.179Z,95010.00
2022-12-11T16:36:23.307Z,95008.41
2022-12-11T16:38:57.675Z,95000.91
2022-12-11T16:41:29.179Z,95003.59
2022-12-11T16:43:58.574Z,94996.22
2022-12-11T16:46:27.522Z,95003.00
2022-12-11T16:48:56.564Z,95007.00
2022-12-11T16:51:26.173Z,95004.31
2022-12-11T16:53:54.949Z,95004.50
2022-12-11T16:59:13.769Z,95004.50
2022-12-11T17:01:42.707Z,94999.63
2022-12-11T17:04:11.902Z,94989.03
2022-12-11T17:06:40.772Z,94992.63
2022-12-11T17:09:13.667Z,94991.78
2022-12-11T17:11:42.311Z,94990.84
2022-12-11T17:14:15.520Z,94999.34
2022-12-11T17:16:44.473Z,94989.44
2022-12-11T17:19:13.396Z,94995.34
2022-12-11T17:21:45.811Z,94995.34
2022-12-11T17:24:17.327Z,94998.44
2022-12-11T17:26:46.279Z,94998.75
2022-12-11T17:29:16.557Z,95003.84
2022-12-11T17:31:45.260Z,95009.16
2022-12-11T17:34:13.746Z,94999.03
2022-12-11T17:36:42.195Z,94999.13
2022-12-11T17:39:10.902Z,95000.75
2022-12-11T17:41:39.324Z,95009.31
2022-12-11T17:44:07.842Z,95001.94
2022-12-11T17:46:38.208Z,94996.91
2022-12-11T17:49:07.077Z,95003.63
2022-12-11T17:51:35.802Z,95007.13
2022-12-11T17:54:04.768Z,95007.91
2022-12-11T17:56:35.053Z,95012.16
2022-12-11T17:59:04.178Z,95016.34
2022-12-11T18:01:33.105Z,95022.84
2022-12-11T18:04:03.572Z,95022.47
2022-12-11T18:06:32.714Z,95014.88
2022-12-11T18:09:01.391Z,95019.97
2022-12-11T18:11:31.877Z,95022.31
2022-12-11T18:14:00.332Z,95016.59
2022-12-11T18:16:31.242Z,95019.13
2022-12-11T18:19:02.672Z,95022.56
2022-12-11T18:21:34.945Z,95023.28
2022-12-11T18:24:04.022Z,95020.03
2022-12-11T18:26:33.308Z,95026.03
2022-12-11T18:29:02.224Z,95017.44
2022-12-11T18:31:35.366Z,95025.22
2022-12-11T18:34:07.551Z,95016.28
2022-12-11T18:36:38.067Z,95023.56
2022-12-11T18:39:07.573Z,95018.03
2022-12-11T18:41:38.341Z,95019.22
2022-12-11T18:44:09.886Z,95026.03
2022-12-11T18:46:40.196Z,95022.69
2022-12-11T18:49:09.117Z,95020.41
2022-12-11T18:52:05.558Z,95025.66
2022-12-11T18:54:34.345Z,95026.53
2022-12-11T18:57:05.696Z,95028.09
2022-12-11T18:59:37.290Z,95032.09
2022-12-11T19:02:08.261Z,95034.59
2022-12-11T19:04:41.758Z,95035.25
2022-12-11T19:07:11.703Z,95038.59
2022-12-11T19:09:44.807Z,95028.59
2022-12-11T19:12:16.376Z,95036.13
2022-12-11T19:14:44.888Z,95036.44
2022-12-11T19:17:13.706Z,95033.03
2022-12-11T19:19:46.448Z,95037.34
2022-12-11T19:22:17.384Z,95038.94
2022-12-11T19:24:46.367Z,95034.06
2022-12-11T19:27:15.765Z,95037.19
2022-12-11T19:29:44.774Z,95033.09
2022-12-11T19:32:13.588Z,95039.75
2022-12-11T19:34:42.324Z,95039.63
2022-12-11T19:37:11.336Z,95039.63
2022-12-11T19:39:41.606Z,95026.97
2022-12-11T19:42:10.258Z,95033.63
2022-12-11T19:44:39.229Z,95028.66
2022-12-11T19:47:10.700Z,95028.59
2022-12-11T19:49:39.849Z,95027.81
2022-12-11T19:52:08.347Z,95026.09
2022-12-11T19:54:37.102Z,95027.13
2022-12-11T19:57:07.188Z,95024.03
2022-12-11T19:59:36.717Z,95032.34
2022-12-11T20:02:08.991Z,95035.19
2022-12-11T20:04:37.527Z,95031.75
2022-12-11T20:07:06.710Z,95027.56
2022-12-11T20:09:35.491Z,95032.34
2022-12-11T20:12:06.369Z,95029.06
2022-12-11T20:14:36.409Z,95022.47
2022-12-11T20:17:12.554Z,95027.34
2022-12-11T20:19:42.481Z,95022.28
2022-12-11T20:22:11.477Z,95009.09
2022-12-11T20:24:40.352Z,95017.09
2022-12-11T20:27:09.669Z,95021.13
2022-12-11T20:29:40.338Z,95021.72
2022-12-11T20:32:11.759Z,95014.13
2022-12-11T20:34:41.427Z,95019.81
2022-12-11T20:37:10.085Z,95017.69
2022-12-11T20:39:39.134Z,95011.84
2022-12-11T20:42:10.899Z,95015.00
2022-12-11T20:44:45.650Z,95013.53
2022-12-11T20:47:19.983Z,95012.13
2022-12-11T20:49:49.213Z,95015.53
2022-12-11T20:52:21.551Z,95008.13
2022-12-11T20:54:50.376Z,95009.91
2022-12-11T20:57:19.101Z,95012.41
2022-12-11T20:59:49.814Z,95017.25
2022-12-11T21:02:18.488Z,95011.31
2022-12-11T21:04:47.541Z,95008.81
2022-12-11T21:07:16.499Z,95013.59
2022-12-11T21:09:46.616Z,95010.88
2022-12-11T21:12:15.648Z,95008.47
2022-12-11T21:14:44.194Z,95017.69
2022-12-11T21:17:14.345Z,95016.84
2022-12-11T21:19:43.276Z,95019.09
2022-12-11T21:22:11.815Z,95020.13
2022-12-11T21:24:41.964Z,95017.69
2022-12-11T21:27:10.916Z,95013.75
2022-12-11T21:29:39.348Z,95011.16
2022-12-11T21:32:08.244Z,95017.75
2022-12-11T21:34:38.718Z,95008.38
2022-12-11T21:37:07.177Z,95010.97
2022-12-11T21:39:39.404Z,95016.78
2022-12-11T21:42:08.179Z,95005.06
2022-12-11T21:47:26.068Z,95018.09
2022-12-11T21:49:55.968Z,95014.34
2022-12-11T21:52:24.377Z,95016.09
2022-12-11T21:54:52.982Z,95017.00
2022-12-11T21:57:26.270Z,95015.06
2022-12-11T21:59:55.694Z,95006.06
2022-12-11T22:02:24.440Z,95023.44
2022-12-11T22:04:52.996Z,95015.00
2022-12-11T22:07:23.140Z,95018.25
2022-12-11T22:09:52.173Z,95018.25
2022-12-11T22:12:23.989Z,95016.09
2022-12-11T22:14:52.796Z,95016.91
2022-12-11T22:17:21.661Z,95014.25
2022-12-11T22:19:52.099Z,95023.28
2022-12-11T22:22:20.879Z,95028.56
2022-12-11T22:24:51.010Z,95023.53
2022-12-11T22:27:23.641Z,95026.66
2022-12-11T22:30:18.259Z,95028.16
2022-12-11T22:32:47.116Z,95024.16
2022-12-11T22:35:16.042Z,95012.72
2022-12-11T22:37:48.829Z,95019.56
2022-12-11T22:40:44.090Z,95031.00
2022-12-11T22:43:12.635Z,95028.09
2022-12-11T22:45:41.798Z,95039.88
2022-12-11T22:48:10.929Z,95031.50
2022-12-11T22:50:39.930Z,95044.97
2022-12-11T22:53:11.083Z,95034.47
2022-12-11T22:55:40.109Z,95030.00
2022-12-11T22:58:10.339Z,95020.19
2022-12-11T23:00:40.145Z,95023.38
2022-12-11T23:03:09.749Z,95027.97
2022-12-11T23:05:43.478Z,95028.28
2022-12-11T23:08:15.008Z,95023.44
2022-12-11T23:10:47.101Z,95033.81
2022-12-11T23:13:17.350Z,95027.38
2022-12-11T23:15:45.830Z,95031.63
2022-12-11T23:18:14.818Z,95035.03
2022-12-11T23:20:46.494Z,95031.56
2022-12-11T23:23:15.111Z,95029.13
2022-12-11T23:25:46.421Z,95036.78
2022-12-11T23:28:16.463Z,95032.69
2022-12-11T23:30:47.265Z,95021.81
2022-12-11T23:33:16.185Z,95032.84
2022-12-11T23:35:46.742Z,95034.28
2022-12-11T23:38:15.675Z,95037.41
2022-12-11T23:40:44.122Z,95044.03
2022-12-11T23:43:17.004Z,95034.81
2022-12-11T23:45:46.400Z,95044.78
2022-12-11T23:48:15.733Z,95040.44
2022-12-11T23:50:44.909Z,95033.81
2022-12-11T23:53:13.645Z,95040.50
2022-12-11T23:55:47.070Z,95039.84
2022-12-11T23:58:16.673Z,95038.94
